sensor_id;sensor_type;location;lat;lon;timestamp;temperature;humidity
36690;DHT22;22676;51.120;3.702;2023-10-31T00:01:21;25.00;50.70
36690;DHT22;22676;51.120;3.702;2023-10-31T00:03:46;25.00;50.70
36690;DHT22;22676;51.120;3.702;2023-10-31T00:06:12;25.00;50.70
36690;DHT22;22676;51.120;3.702;2023-10-31T00:08:38;25.00;50.70
36690;DHT22;22676;51.120;3.702;2023-10-31T00:11:04;25.00;50.80
36690;DHT22;22676;51.120;3.702;2023-10-31T00:13:29;25.00;50.80
36690;DHT22;22676;51.120;3.702;2023-10-31T00:15:55;25.00;50.80
36690;DHT22;22676;51.120;3.702;2023-10-31T00:18:21;25.00;50.90
36690;DHT22;22676;51.120;3.702;2023-10-31T00:20:47;25.00;50.90
36690;DHT22;22676;51.120;3.702;2023-10-31T00:23:13;25.00;50.90
36690;DHT22;22676;51.120;3.702;2023-10-31T00:25:39;25.00;50.80
36690;DHT22;22676;51.120;3.702;2023-10-31T00:28:05;25.00;50.80
36690;DHT22;22676;51.120;3.702;2023-10-31T00:30:30;25.00;50.70
36690;DHT22;22676;51.120;3.702;2023-10-31T00:32:56;25.00;50.80
36690;DHT22;22676;51.120;3.702;2023-10-31T00:35:22;25.00;50.80
36690;DHT22;22676;51.120;3.702;2023-10-31T00:37:47;25.00;50.80
36690;DHT22;22676;51.120;3.702;2023-10-31T00:40:13;25.00;50.80
36690;DHT22;22676;51.120;3.702;2023-10-31T00:42:39;25.00;50.70
36690;DHT22;22676;51.120;3.702;2023-10-31T00:45:07;25.00;50.70
36690;DHT22;22676;51.120;3.702;2023-10-31T00:47:34;25.00;50.60
36690;DHT22;22676;51.120;3.702;2023-10-31T00:50:00;25.00;50.60
36690;DHT22;22676;51.120;3.702;2023-10-31T00:52:25;25.00;50.60
36690;DHT22;22676;51.120;3.702;2023-10-31T00:54:51;25.00;50.70
36690;DHT22;22676;51.120;3.702;2023-10-31T00:57:17;25.00;50.70
36690;DHT22;22676;51.120;3.702;2023-10-31T00:59:43;25.00;50.70
36690;DHT22;22676;51.120;3.702;2023-10-31T01:02:08;25.00;50.70
36690;DHT22;22676;51.120;3.702;2023-10-31T01:04:36;25.00;50.70
36690;DHT22;22676;51.120;3.702;2023-10-31T01:07:01;25.00;50.70
36690;DHT22;22676;51.120;3.702;2023-10-31T01:09:27;25.00;50.80
36690;DHT22;22676;51.120;3.702;2023-10-31T01:11:52;25.00;50.80
36690;DHT22;22676;51.120;3.702;2023-10-31T01:14:19;25.00;50.80
36690;DHT22;22676;51.120;3.702;2023-10-31T01:16:45;25.00;50.80
36690;DHT22;22676;51.120;3.702;2023-10-31T01:19:10;25.00;50.80
36690;DHT22;22676;51.120;3.702;2023-10-31T01:21:36;25.00;50.80
36690;DHT22;22676;51.120;3.702;2023-10-31T01:24:02;25.00;50.80
36690;DHT22;22676;51.120;3.702;2023-10-31T01:26:27;25.00;50.80
36690;DHT22;22676;51.120;3.702;2023-10-31T01:28:53;25.00;50.70
36690;DHT22;22676;51.120;3.702;2023-10-31T01:31:19;25.00;50.80
36690;DHT22;22676;51.120;3.702;2023-10-31T01:33:45;25.00;50.80
36690;DHT22;22676;51.120;3.702;2023-10-31T01:36:11;25.00;50.70
36690;DHT22;22676;51.120;3.702;2023-10-31T01:38:38;25.00;50.70
36690;DHT22;22676;51.120;3.702;2023-10-31T01:41:04;25.00;50.70
36690;DHT22;22676;51.120;3.702;2023-10-31T01:43:32;25.00;50.80
36690;DHT22;22676;51.120;3.702;2023-10-31T01:45:58;25.00;50.80
36690;DHT22;22676;51.120;3.702;2023-10-31T01:48:25;25.00;50.80
36690;DHT22;22676;51.120;3.702;2023-10-31T01:50:51;25.00;50.80
36690;DHT22;22676;51.120;3.702;2023-10-31T01:53:18;25.00;50.80
36690;DHT22;22676;51.120;3.702;2023-10-31T01:55:45;25.00;50.70
36690;DHT22;22676;51.120;3.702;2023-10-31T01:58:12;25.10;50.70
36690;DHT22;22676;51.120;3.702;2023-10-31T02:00:40;25.00;50.60
36690;DHT22;22676;51.120;3.702;2023-10-31T02:03:09;25.10;50.80
36690;DHT22;22676;51.120;3.702;2023-10-31T02:05:35;25.10;50.60
36690;DHT22;22676;51.120;3.702;2023-10-31T02:08:01;25.10;50.60
36690;DHT22;22676;51.120;3.702;2023-10-31T02:10:28;25.10;50.60
36690;DHT22;22676;51.120;3.702;2023-10-31T02:12:53;25.10;50.60
36690;DHT22;22676;51.120;3.702;2023-10-31T02:15:19;25.10;50.50
36690;DHT22;22676;51.120;3.702;2023-10-31T02:17:45;25.10;50.50
36690;DHT22;22676;51.120;3.702;2023-10-31T02:20:11;25.10;50.50
36690;DHT22;22676;51.120;3.702;2023-10-31T02:22:36;25.00;50.50
36690;DHT22;22676;51.120;3.702;2023-10-31T02:25:02;25.00;50.70
36690;DHT22;22676;51.120;3.702;2023-10-31T02:27:28;24.90;50.70
36690;DHT22;22676;51.120;3.702;2023-10-31T02:29:53;24.80;50.90
36690;DHT22;22676;51.120;3.702;2023-10-31T02:32:19;24.80;51.10
36690;DHT22;22676;51.120;3.702;2023-10-31T02:34:45;24.70;51.10
36690;DHT22;22676;51.120;3.702;2023-10-31T02:37:11;24.70;51.40
36690;DHT22;22676;51.120;3.702;2023-10-31T02:39:37;24.60;51.50
36690;DHT22;22676;51.120;3.702;2023-10-31T02:42:03;24.50;51.60
36690;DHT22;22676;51.120;3.702;2023-10-31T02:44:29;24.50;51.80
36690;DHT22;22676;51.120;3.702;2023-10-31T02:46:55;24.40;51.90
36690;DHT22;22676;51.120;3.702;2023-10-31T02:49:21;24.40;52.10
36690;DHT22;22676;51.120;3.702;2023-10-31T02:51:47;24.30;52.20
36690;DHT22;22676;51.120;3.702;2023-10-31T02:54:12;24.20;52.30
36690;DHT22;22676;51.120;3.702;2023-10-31T02:56:38;24.20;52.40
36690;DHT22;22676;51.120;3.702;2023-10-31T02:59:04;24.20;52.50
36690;DHT22;22676;51.120;3.702;2023-10-31T03:01:30;24.20;52.50
36690;DHT22;22676;51.120;3.702;2023-10-31T03:03:56;24.10;52.60
36690;DHT22;22676;51.120;3.702;2023-10-31T03:06:21;24.10;52.70
36690;DHT22;22676;51.120;3.702;2023-10-31T03:08:47;24.10;52.80
36690;DHT22;22676;51.120;3.702;2023-10-31T03:11:26;24.00;52.80
36690;DHT22;22676;51.120;3.702;2023-10-31T03:13:52;24.00;52.90
36690;DHT22;22676;51.120;3.702;2023-10-31T03:16:19;24.00;53.00
36690;DHT22;22676;51.120;3.702;2023-10-31T03:18:45;23.90;53.10
36690;DHT22;22676;51.120;3.702;2023-10-31T03:21:11;23.90;53.10
36690;DHT22;22676;51.120;3.702;2023-10-31T03:23:37;23.90;53.20
36690;DHT22;22676;51.120;3.702;2023-10-31T03:26:03;23.80;53.10
36690;DHT22;22676;51.120;3.702;2023-10-31T03:28:29;23.80;53.30
36690;DHT22;22676;51.120;3.702;2023-10-31T03:30:54;23.80;53.30
36690;DHT22;22676;51.120;3.702;2023-10-31T03:33:20;23.80;53.30
36690;DHT22;22676;51.120;3.702;2023-10-31T03:35:46;23.80;53.40
36690;DHT22;22676;51.120;3.702;2023-10-31T03:38:12;23.80;53.50
36690;DHT22;22676;51.120;3.702;2023-10-31T03:40:38;23.80;53.50
36690;DHT22;22676;51.120;3.702;2023-10-31T03:43:04;23.80;53.50
36690;DHT22;22676;51.120;3.702;2023-10-31T03:45:29;23.70;53.50
36690;DHT22;22676;51.120;3.702;2023-10-31T03:47:55;23.70;53.50
36690;DHT22;22676;51.120;3.702;2023-10-31T03:50:21;23.70;53.60
36690;DHT22;22676;51.120;3.702;2023-10-31T03:52:47;23.70;53.60
36690;DHT22;22676;51.120;3.702;2023-10-31T03:55:13;23.70;53.60
36690;DHT22;22676;51.120;3.702;2023-10-31T03:57:39;23.70;53.60
36690;DHT22;22676;51.120;3.702;2023-10-31T04:00:05;23.70;53.70
36690;DHT22;22676;51.120;3.702;2023-10-31T04:02:33;23.60;53.60
36690;DHT22;22676;51.120;3.702;2023-10-31T04:04:58;23.70;53.70
36690;DHT22;22676;51.120;3.702;2023-10-31T04:07:24;23.60;53.70
36690;DHT22;22676;51.120;3.702;2023-10-31T04:09:50;23.60;53.80
36690;DHT22;22676;51.120;3.702;2023-10-31T04:12:17;23.60;53.80
36690;DHT22;22676;51.120;3.702;2023-10-31T04:14:42;23.60;53.90
36690;DHT22;22676;51.120;3.702;2023-10-31T04:17:08;23.60;54.00
36690;DHT22;22676;51.120;3.702;2023-10-31T04:19:36;23.50;54.00
36690;DHT22;22676;51.120;3.702;2023-10-31T04:22:02;23.50;54.00
36690;DHT22;22676;51.120;3.702;2023-10-31T04:24:28;23.50;54.10
36690;DHT22;22676;51.120;3.702;2023-10-31T04:26:54;23.50;54.10
36690;DHT22;22676;51.120;3.702;2023-10-31T04:29:19;23.40;54.10
36690;DHT22;22676;51.120;3.702;2023-10-31T04:31:45;23.40;54.10
36690;DHT22;22676;51.120;3.702;2023-10-31T04:34:11;23.50;54.20
36690;DHT22;22676;51.120;3.702;2023-10-31T04:36:36;23.40;54.10
36690;DHT22;22676;51.120;3.702;2023-10-31T04:39:02;23.40;54.20
36690;DHT22;22676;51.120;3.702;2023-10-31T04:41:28;23.40;54.00
36690;DHT22;22676;51.120;3.702;2023-10-31T04:43:54;23.40;54.00
36690;DHT22;22676;51.120;3.702;2023-10-31T04:46:19;23.40;54.10
36690;DHT22;22676;51.120;3.702;2023-10-31T04:48:45;23.40;54.10
36690;DHT22;22676;51.120;3.702;2023-10-31T04:51:11;23.40;54.10
36690;DHT22;22676;51.120;3.702;2023-10-31T04:53:36;23.40;54.10
36690;DHT22;22676;51.120;3.702;2023-10-31T04:56:02;23.40;54.10
36690;DHT22;22676;51.120;3.702;2023-10-31T04:58:28;23.40;54.10
36690;DHT22;22676;51.120;3.702;2023-10-31T05:00:54;23.40;54.10
36690;DHT22;22676;51.120;3.702;2023-10-31T05:03:19;23.40;54.10
36690;DHT22;22676;51.120;3.702;2023-10-31T05:05:45;23.40;54.10
36690;DHT22;22676;51.120;3.702;2023-10-31T05:08:11;23.40;54.10
36690;DHT22;22676;51.120;3.702;2023-10-31T05:10:37;23.40;54.10
36690;DHT22;22676;51.120;3.702;2023-10-31T05:13:03;23.40;54.00
36690;DHT22;22676;51.120;3.702;2023-10-31T05:15:28;23.40;54.00
36690;DHT22;22676;51.120;3.702;2023-10-31T05:17:54;23.40;54.00
36690;DHT22;22676;51.120;3.702;2023-10-31T05:20:20;23.40;54.00
36690;DHT22;22676;51.120;3.702;2023-10-31T05:22:46;23.40;54.00
36690;DHT22;22676;51.120;3.702;2023-10-31T05:25:12;23.40;53.90
36690;DHT22;22676;51.120;3.702;2023-10-31T05:27:39;23.40;53.90
36690;DHT22;22676;51.120;3.702;2023-10-31T05:30:05;23.40;53.90
36690;DHT22;22676;51.120;3.702;2023-10-31T05:32:31;23.40;53.80
36690;DHT22;22676;51.120;3.702;2023-10-31T05:34:56;23.40;53.80
36690;DHT22;22676;51.120;3.702;2023-10-31T05:37:22;23.40;53.80
36690;DHT22;22676;51.120;3.702;2023-10-31T05:39:48;23.40;53.80
36690;DHT22;22676;51.120;3.702;2023-10-31T05:42:13;23.30;53.80
36690;DHT22;22676;51.120;3.702;2023-10-31T05:44:39;23.40;53.80
36690;DHT22;22676;51.120;3.702;2023-10-31T05:47:05;23.40;53.70
36690;DHT22;22676;51.120;3.702;2023-10-31T05:49:31;23.40;53.70
36690;DHT22;22676;51.120;3.702;2023-10-31T05:51:57;23.40;53.60
36690;DHT22;22676;51.120;3.702;2023-10-31T05:54:23;23.50;53.50
36690;DHT22;22676;51.120;3.702;2023-10-31T05:56:50;23.50;53.50
36690;DHT22;22676;51.120;3.702;2023-10-31T05:59:15;23.50;53.50
36690;DHT22;22676;51.120;3.702;2023-10-31T06:01:41;23.50;53.50
36690;DHT22;22676;51.120;3.702;2023-10-31T06:04:07;23.50;53.40
36690;DHT22;22676;51.120;3.702;2023-10-31T06:06:33;23.50;53.30
36690;DHT22;22676;51.120;3.702;2023-10-31T06:09:02;23.50;53.10
36690;DHT22;22676;51.120;3.702;2023-10-31T06:11:28;23.50;53.30
36690;DHT22;22676;51.120;3.702;2023-10-31T06:13:54;23.40;53.10
36690;DHT22;22676;51.120;3.702;2023-10-31T06:16:20;23.50;53.30
36690;DHT22;22676;51.120;3.702;2023-10-31T06:18:46;23.40;53.50
36690;DHT22;22676;51.120;3.702;2023-10-31T06:21:12;23.50;53.50
36690;DHT22;22676;51.120;3.702;2023-10-31T06:23:38;23.40;53.40
36690;DHT22;22676;51.120;3.702;2023-10-31T06:26:04;23.50;53.40
36690;DHT22;22676;51.120;3.702;2023-10-31T06:28:30;23.50;53.30
36690;DHT22;22676;51.120;3.702;2023-10-31T06:30:55;23.40;53.20
36690;DHT22;22676;51.120;3.702;2023-10-31T06:33:21;23.50;53.20
36690;DHT22;22676;51.120;3.702;2023-10-31T06:35:47;23.50;53.20
36690;DHT22;22676;51.120;3.702;2023-10-31T06:38:13;23.50;53.20
36690;DHT22;22676;51.120;3.702;2023-10-31T06:40:38;23.50;53.10
36690;DHT22;22676;51.120;3.702;2023-10-31T06:43:04;23.50;52.90
36690;DHT22;22676;51.120;3.702;2023-10-31T06:45:30;23.50;52.70
36690;DHT22;22676;51.120;3.702;2023-10-31T06:47:55;23.40;52.60
36690;DHT22;22676;51.120;3.702;2023-10-31T06:50:21;23.40;53.00
36690;DHT22;22676;51.120;3.702;2023-10-31T06:52:47;23.40;53.10
36690;DHT22;22676;51.120;3.702;2023-10-31T06:55:13;23.40;52.70
36690;DHT22;22676;51.120;3.702;2023-10-31T06:57:39;23.40;52.30
36690;DHT22;22676;51.120;3.702;2023-10-31T07:00:05;23.40;52.30
36690;DHT22;22676;51.120;3.702;2023-10-31T07:02:34;23.40;52.30
36690;DHT22;22676;51.120;3.702;2023-10-31T07:05:01;23.30;52.40
36690;DHT22;22676;51.120;3.702;2023-10-31T07:07:27;23.40;52.50
36690;DHT22;22676;51.120;3.702;2023-10-31T07:09:52;23.30;52.50
36690;DHT22;22676;51.120;3.702;2023-10-31T07:12:18;23.30;52.90
36690;DHT22;22676;51.120;3.702;2023-10-31T07:14:44;23.30;52.50
36690;DHT22;22676;51.120;3.702;2023-10-31T07:17:09;23.30;52.30
36690;DHT22;22676;51.120;3.702;2023-10-31T07:19:35;23.30;52.30
36690;DHT22;22676;51.120;3.702;2023-10-31T07:22:01;23.30;52.10
36690;DHT22;22676;51.120;3.702;2023-10-31T07:24:27;23.30;52.00
36690;DHT22;22676;51.120;3.702;2023-10-31T07:26:54;23.30;52.60
36690;DHT22;22676;51.120;3.702;2023-10-31T07:29:20;23.20;52.20
36690;DHT22;22676;51.120;3.702;2023-10-31T07:31:45;23.20;52.20
36690;DHT22;22676;51.120;3.702;2023-10-31T07:34:11;23.30;52.30
36690;DHT22;22676;51.120;3.702;2023-10-31T07:36:37;23.20;52.30
36690;DHT22;22676;51.120;3.702;2023-10-31T07:39:04;23.20;52.30
36690;DHT22;22676;51.120;3.702;2023-10-31T07:41:30;23.20;52.30
36690;DHT22;22676;51.120;3.702;2023-10-31T07:43:56;23.20;52.00
36690;DHT22;22676;51.120;3.702;2023-10-31T07:46:22;23.30;52.00
36690;DHT22;22676;51.120;3.702;2023-10-31T07:48:48;23.20;52.00
36690;DHT22;22676;51.120;3.702;2023-10-31T07:51:14;23.20;52.20
36690;DHT22;22676;51.120;3.702;2023-10-31T07:53:41;23.20;52.10
36690;DHT22;22676;51.120;3.702;2023-10-31T07:56:20;23.20;52.10
36690;DHT22;22676;51.120;3.702;2023-10-31T07:58:49;23.20;51.90
36690;DHT22;22676;51.120;3.702;2023-10-31T08:01:19;23.20;52.00
36690;DHT22;22676;51.120;3.702;2023-10-31T08:03:48;23.20;52.00
36690;DHT22;22676;51.120;3.702;2023-10-31T08:06:14;23.20;52.00
36690;DHT22;22676;51.120;3.702;2023-10-31T08:08:40;23.20;52.00
36690;DHT22;22676;51.120;3.702;2023-10-31T08:11:09;23.20;52.00
36690;DHT22;22676;51.120;3.702;2023-10-31T08:13:39;23.20;52.10
36690;DHT22;22676;51.120;3.702;2023-10-31T08:16:06;23.20;52.20
36690;DHT22;22676;51.120;3.702;2023-10-31T08:18:35;23.20;52.00
36690;DHT22;22676;51.120;3.702;2023-10-31T08:21:03;23.20;52.00
36690;DHT22;22676;51.120;3.702;2023-10-31T08:23:29;23.20;52.00
36690;DHT22;22676;51.120;3.702;2023-10-31T08:25:55;23.20;52.00
36690;DHT22;22676;51.120;3.702;2023-10-31T08:28:21;23.20;51.90
36690;DHT22;22676;51.120;3.702;2023-10-31T08:30:47;23.20;52.00
36690;DHT22;22676;51.120;3.702;2023-10-31T08:33:13;23.20;52.00
36690;DHT22;22676;51.120;3.702;2023-10-31T08:35:39;23.20;51.90
36690;DHT22;22676;51.120;3.702;2023-10-31T08:38:05;23.20;52.00
36690;DHT22;22676;51.120;3.702;2023-10-31T08:40:31;23.20;51.90
36690;DHT22;22676;51.120;3.702;2023-10-31T08:42:57;23.20;51.90
36690;DHT22;22676;51.120;3.702;2023-10-31T08:45:22;23.20;52.20
36690;DHT22;22676;51.120;3.702;2023-10-31T08:47:48;23.20;52.40
36690;DHT22;22676;51.120;3.702;2023-10-31T08:50:14;23.20;52.10
36690;DHT22;22676;51.120;3.702;2023-10-31T08:52:40;23.20;52.10
36690;DHT22;22676;51.120;3.702;2023-10-31T08:55:06;23.20;52.00
36690;DHT22;22676;51.120;3.702;2023-10-31T08:57:32;23.20;52.20
36690;DHT22;22676;51.120;3.702;2023-10-31T08:59:59;23.20;52.40
36690;DHT22;22676;51.120;3.702;2023-10-31T09:02:25;23.20;52.10
36690;DHT22;22676;51.120;3.702;2023-10-31T09:04:51;23.20;52.00
36690;DHT22;22676;51.120;3.702;2023-10-31T09:07:17;23.20;51.90
36690;DHT22;22676;51.120;3.702;2023-10-31T09:09:42;23.20;52.00
36690;DHT22;22676;51.120;3.702;2023-10-31T09:12:08;23.20;52.10
36690;DHT22;22676;51.120;3.702;2023-10-31T09:14:34;23.20;52.00
36690;DHT22;22676;51.120;3.702;2023-10-31T09:17:01;23.20;52.00
36690;DHT22;22676;51.120;3.702;2023-10-31T09:19:26;23.20;52.00
36690;DHT22;22676;51.120;3.702;2023-10-31T09:21:52;23.20;51.90
36690;DHT22;22676;51.120;3.702;2023-10-31T09:24:18;23.20;51.90
36690;DHT22;22676;51.120;3.702;2023-10-31T09:26:46;23.20;52.20
36690;DHT22;22676;51.120;3.702;2023-10-31T09:29:12;23.20;52.00
36690;DHT22;22676;51.120;3.702;2023-10-31T09:31:38;23.20;52.00
36690;DHT22;22676;51.120;3.702;2023-10-31T09:34:03;23.20;52.00
36690;DHT22;22676;51.120;3.702;2023-10-31T09:36:32;23.20;52.00
36690;DHT22;22676;51.120;3.702;2023-10-31T09:39:00;23.20;52.00
36690;DHT22;22676;51.120;3.702;2023-10-31T09:41:25;23.20;52.30
36690;DHT22;22676;51.120;3.702;2023-10-31T09:43:51;23.20;52.10
36690;DHT22;22676;51.120;3.702;2023-10-31T09:46:18;23.20;52.00
36690;DHT22;22676;51.120;3.702;2023-10-31T09:48:44;23.20;52.10
36690;DHT22;22676;51.120;3.702;2023-10-31T09:51:10;23.20;52.10
36690;DHT22;22676;51.120;3.702;2023-10-31T09:53:39;23.20;52.10
36690;DHT22;22676;51.120;3.702;2023-10-31T09:56:07;23.20;52.10
36690;DHT22;22676;51.120;3.702;2023-10-31T09:58:33;23.20;52.00
36690;DHT22;22676;51.120;3.702;2023-10-31T10:00:58;23.20;52.20
36690;DHT22;22676;51.120;3.702;2023-10-31T10:03:24;23.10;52.00
36690;DHT22;22676;51.120;3.702;2023-10-31T10:05:51;23.20;51.90
36690;DHT22;22676;51.120;3.702;2023-10-31T10:08:16;23.10;51.90
36690;DHT22;22676;51.120;3.702;2023-10-31T10:10:42;23.20;52.00
36690;DHT22;22676;51.120;3.702;2023-10-31T10:13:08;23.20;52.00
36690;DHT22;22676;51.120;3.702;2023-10-31T10:15:50;23.10;52.30
36690;DHT22;22676;51.120;3.702;2023-10-31T10:18:31;23.20;52.00
36690;DHT22;22676;51.120;3.702;2023-10-31T10:20:59;23.20;52.00
36690;DHT22;22676;51.120;3.702;2023-10-31T10:23:26;23.10;52.00
36690;DHT22;22676;51.120;3.702;2023-10-31T10:25:53;23.10;52.00
36690;DHT22;22676;51.120;3.702;2023-10-31T10:28:19;23.20;52.00
36690;DHT22;22676;51.120;3.702;2023-10-31T10:30:48;23.20;52.00
36690;DHT22;22676;51.120;3.702;2023-10-31T10:33:15;23.20;52.00
36690;DHT22;22676;51.120;3.702;2023-10-31T10:35:41;23.10;51.90
36690;DHT22;22676;51.120;3.702;2023-10-31T10:38:17;23.10;52.00
36690;DHT22;22676;51.120;3.702;2023-10-31T10:40:45;23.20;52.00
36690;DHT22;22676;51.120;3.702;2023-10-31T10:43:22;23.20;52.20
36690;DHT22;22676;51.120;3.702;2023-10-31T10:45:56;23.20;52.00
36690;DHT22;22676;51.120;3.702;2023-10-31T10:48:23;23.10;52.00
36690;DHT22;22676;51.120;3.702;2023-10-31T10:51:05;23.10;52.00
36690;DHT22;22676;51.120;3.702;2023-10-31T10:53:44;23.20;52.00
36690;DHT22;22676;51.120;3.702;2023-10-31T10:56:25;23.20;52.10
36690;DHT22;22676;51.120;3.702;2023-10-31T10:58:56;23.10;52.20
36690;DHT22;22676;51.120;3.702;2023-10-31T11:01:26;23.10;52.00
36690;DHT22;22676;51.120;3.702;2023-10-31T11:03:55;23.10;52.10
36690;DHT22;22676;51.120;3.702;2023-10-31T11:06:21;23.10;52.10
36690;DHT22;22676;51.120;3.702;2023-10-31T11:08:47;23.10;52.10
36690;DHT22;22676;51.120;3.702;2023-10-31T11:11:13;23.10;52.00
36690;DHT22;22676;51.120;3.702;2023-10-31T11:13:43;23.10;52.00
36690;DHT22;22676;51.120;3.702;2023-10-31T11:16:15;23.10;52.10
36690;DHT22;22676;51.120;3.702;2023-10-31T11:18:43;23.10;52.30
36690;DHT22;22676;51.120;3.702;2023-10-31T11:21:09;23.10;52.10
36690;DHT22;22676;51.120;3.702;2023-10-31T11:23:35;23.10;52.10
36690;DHT22;22676;51.120;3.702;2023-10-31T11:26:01;23.10;52.30
36690;DHT22;22676;51.120;3.702;2023-10-31T11:28:27;23.00;52.20
36690;DHT22;22676;51.120;3.702;2023-10-31T11:30:53;23.10;52.10
36690;DHT22;22676;51.120;3.702;2023-10-31T11:33:24;23.00;52.10
36690;DHT22;22676;51.120;3.702;2023-10-31T11:35:51;23.00;52.20
36690;DHT22;22676;51.120;3.702;2023-10-31T11:38:17;23.00;52.30
36690;DHT22;22676;51.120;3.702;2023-10-31T11:41:01;23.00;52.20
36690;DHT22;22676;51.120;3.702;2023-10-31T11:43:45;23.00;52.30
36690;DHT22;22676;51.120;3.702;2023-10-31T11:46:19;23.10;52.40
36690;DHT22;22676;51.120;3.702;2023-10-31T11:48:53;23.00;52.30
36690;DHT22;22676;51.120;3.702;2023-10-31T11:51:21;23.00;52.30
36690;DHT22;22676;51.120;3.702;2023-10-31T11:53:48;23.10;52.30
36690;DHT22;22676;51.120;3.702;2023-10-31T11:56:15;23.00;52.40
36690;DHT22;22676;51.120;3.702;2023-10-31T11:58:41;23.10;52.30
36690;DHT22;22676;51.120;3.702;2023-10-31T12:01:08;23.00;52.30
36690;DHT22;22676;51.120;3.702;2023-10-31T12:06:05;23.00;52.40
36690;DHT22;22676;51.120;3.702;2023-10-31T12:08:31;23.00;52.50
36690;DHT22;22676;51.120;3.702;2023-10-31T12:16:24;23.00;52.40
36690;DHT22;22676;51.120;3.702;2023-10-31T12:19:02;23.00;52.50
36690;DHT22;22676;51.120;3.702;2023-10-31T12:21:36;23.00;52.50
36690;DHT22;22676;51.120;3.702;2023-10-31T12:24:03;23.00;52.50
36690;DHT22;22676;51.120;3.702;2023-10-31T12:26:29;23.00;52.50
36690;DHT22;22676;51.120;3.702;2023-10-31T12:29:16;23.00;52.60
36690;DHT22;22676;51.120;3.702;2023-10-31T12:31:46;23.00;52.40
36690;DHT22;22676;51.120;3.702;2023-10-31T12:34:13;23.00;52.50
36690;DHT22;22676;51.120;3.702;2023-10-31T12:36:40;23.00;52.40
36690;DHT22;22676;51.120;3.702;2023-10-31T12:39:07;23.00;52.50
36690;DHT22;22676;51.120;3.702;2023-10-31T12:41:35;23.00;52.40
36690;DHT22;22676;51.120;3.702;2023-10-31T12:44:01;23.00;52.50
36690;DHT22;22676;51.120;3.702;2023-10-31T12:46:28;23.00;52.40
36690;DHT22;22676;51.120;3.702;2023-10-31T12:48:58;23.00;52.40
36690;DHT22;22676;51.120;3.702;2023-10-31T12:51:24;23.10;52.50
36690;DHT22;22676;51.120;3.702;2023-10-31T12:53:53;23.00;52.30
36690;DHT22;22676;51.120;3.702;2023-10-31T12:56:41;23.00;52.50
36690;DHT22;22676;51.120;3.702;2023-10-31T12:59:10;23.00;52.30
36690;DHT22;22676;51.120;3.702;2023-10-31T13:01:45;23.00;52.40
36690;DHT22;22676;51.120;3.702;2023-10-31T13:04:10;23.00;52.40
36690;DHT22;22676;51.120;3.702;2023-10-31T13:06:37;23.00;52.50
36690;DHT22;22676;51.120;3.702;2023-10-31T13:09:04;23.00;52.60
36690;DHT22;22676;51.120;3.702;2023-10-31T13:11:39;23.00;52.60
36690;DHT22;22676;51.120;3.702;2023-10-31T13:14:05;23.00;52.60
36690;DHT22;22676;51.120;3.702;2023-10-31T13:16:32;23.00;52.60
36690;DHT22;22676;51.120;3.702;2023-10-31T13:18:59;23.00;52.60
36690;DHT22;22676;51.120;3.702;2023-10-31T13:21:24;23.00;52.50
36690;DHT22;22676;51.120;3.702;2023-10-31T13:23:50;23.00;52.50
36690;DHT22;22676;51.120;3.702;2023-10-31T13:26:16;23.00;52.50
36690;DHT22;22676;51.120;3.702;2023-10-31T13:28:42;23.00;52.60
36690;DHT22;22676;51.120;3.702;2023-10-31T13:31:08;23.00;52.50
36690;DHT22;22676;51.120;3.702;2023-10-31T13:33:34;23.10;52.50
36690;DHT22;22676;51.120;3.702;2023-10-31T13:36:00;23.10;52.40
36690;DHT22;22676;51.120;3.702;2023-10-31T13:38:26;23.10;52.50
36690;DHT22;22676;51.120;3.702;2023-10-31T13:40:51;23.10;52.50
36690;DHT22;22676;51.120;3.702;2023-10-31T13:43:17;23.10;52.40
36690;DHT22;22676;51.120;3.702;2023-10-31T13:45:43;23.10;52.90
36690;DHT22;22676;51.120;3.702;2023-10-31T13:48:08;23.10;52.40
36690;DHT22;22676;51.120;3.702;2023-10-31T13:50:36;23.10;52.40
36690;DHT22;22676;51.120;3.702;2023-10-31T13:53:02;23.10;52.30
36690;DHT22;22676;51.120;3.702;2023-10-31T13:55:30;23.10;52.30
36690;DHT22;22676;51.120;3.702;2023-10-31T13:57:55;23.10;52.30
36690;DHT22;22676;51.120;3.702;2023-10-31T14:00:21;23.10;52.40
36690;DHT22;22676;51.120;3.702;2023-10-31T14:02:47;23.10;52.30
36690;DHT22;22676;51.120;3.702;2023-10-31T14:05:13;23.10;52.30
36690;DHT22;22676;51.120;3.702;2023-10-31T14:07:39;23.10;52.40
36690;DHT22;22676;51.120;3.702;2023-10-31T14:10:05;23.10;52.40
36690;DHT22;22676;51.120;3.702;2023-10-31T14:12:30;23.10;52.50
36690;DHT22;22676;51.120;3.702;2023-10-31T14:14:56;23.10;52.50
36690;DHT22;22676;51.120;3.702;2023-10-31T14:17:22;23.10;52.40
36690;DHT22;22676;51.120;3.702;2023-10-31T14:19:48;23.10;52.40
36690;DHT22;22676;51.120;3.702;2023-10-31T14:22:14;23.10;52.40
36690;DHT22;22676;51.120;3.702;2023-10-31T14:24:40;23.10;52.50
36690;DHT22;22676;51.120;3.702;2023-10-31T14:27:06;23.10;52.50
36690;DHT22;22676;51.120;3.702;2023-10-31T14:29:31;23.10;52.50
36690;DHT22;22676;51.120;3.702;2023-10-31T14:32:04;23.10;52.50
36690;DHT22;22676;51.120;3.702;2023-10-31T14:34:31;23.10;52.60
36690;DHT22;22676;51.120;3.702;2023-10-31T14:36:56;23.10;52.50
36690;DHT22;22676;51.120;3.702;2023-10-31T14:39:22;23.10;52.50
36690;DHT22;22676;51.120;3.702;2023-10-31T14:41:48;23.10;52.60
36690;DHT22;22676;51.120;3.702;2023-10-31T14:44:13;23.10;52.60
36690;DHT22;22676;51.120;3.702;2023-10-31T14:46:39;23.10;52.60
36690;DHT22;22676;51.120;3.702;2023-10-31T14:49:05;23.10;52.70
36690;DHT22;22676;51.120;3.702;2023-10-31T14:51:30;23.10;52.50
36690;DHT22;22676;51.120;3.702;2023-10-31T14:53:56;23.10;52.50
36690;DHT22;22676;51.120;3.702;2023-10-31T14:56:23;23.00;53.20
36690;DHT22;22676;51.120;3.702;2023-10-31T14:58:49;23.10;52.60
36690;DHT22;22676;51.120;3.702;2023-10-31T15:01:15;23.00;52.50
36690;DHT22;22676;51.120;3.702;2023-10-31T15:03:42;23.00;52.60
36690;DHT22;22676;51.120;3.702;2023-10-31T15:06:07;23.00;52.60
36690;DHT22;22676;51.120;3.702;2023-10-31T15:08:33;23.00;52.50
36690;DHT22;22676;51.120;3.702;2023-10-31T15:10:59;23.00;52.60
36690;DHT22;22676;51.120;3.702;2023-10-31T15:13:25;23.00;52.70
36690;DHT22;22676;51.120;3.702;2023-10-31T15:15:51;23.00;52.50
36690;DHT22;22676;51.120;3.702;2023-10-31T15:18:20;23.10;52.70
36690;DHT22;22676;51.120;3.702;2023-10-31T15:20:46;23.00;52.70
36690;DHT22;22676;51.120;3.702;2023-10-31T15:23:12;23.00;52.60
36690;DHT22;22676;51.120;3.702;2023-10-31T15:25:40;23.00;52.70
36690;DHT22;22676;51.120;3.702;2023-10-31T15:28:06;23.00;52.70
36690;DHT22;22676;51.120;3.702;2023-10-31T15:30:32;23.00;52.70
36690;DHT22;22676;51.120;3.702;2023-10-31T15:32:58;23.10;52.80
36690;DHT22;22676;51.120;3.702;2023-10-31T15:35:24;23.00;52.70